sensor_id;sensor_type;location;lat;lon;timestamp;P1;durP1;ratioP1;P2;durP2;ratioP2
84161;SDS011;74285;52.372;12.924;2024-01-15T00:01:35;9.73;;;3.80;;
84161;SDS011;74285;52.372;12.924;2024-01-15T00:04:00;9.77;;;4.20;;
84161;SDS011;74285;52.372;12.924;2024-01-15T00:06:25;13.43;;;5.80;;
84161;SDS011;74285;52.372;12.924;2024-01-15T00:08:52;6.72;;;3.78;;
84161;SDS011;74285;52.372;12.924;2024-01-15T00:11:17;12.13;;;5.60;;
84161;SDS011;74285;52.372;12.924;2024-01-15T00:13:42;12.00;;;5.50;;
84161;SDS011;74285;52.372;12.924;2024-01-15T00:16:07;10.30;;;3.83;;
84161;SDS011;74285;52.372;12.924;2024-01-15T00:18:33;6.57;;;3.60;;
84161;SDS011;74285;52.372;12.924;2024-01-15T00:20:58;6.87;;;3.17;;
84161;SDS011;74285;52.372;12.924;2024-01-15T00:23:23;8.67;;;3.80;;
84161;SDS011;74285;52.372;12.924;2024-01-15T00:25:50;12.20;;;4.57;;
84161;SDS011;74285;52.372;12.924;2024-01-15T00:28:16;6.00;;;3.17;;
84161;SDS011;74285;52.372;12.924;2024-01-15T00:30:41;10.17;;;3.80;;
84161;SDS011;74285;52.372;12.924;2024-01-15T00:33:07;4.67;;;2.10;;
84161;SDS011;74285;52.372;12.924;2024-01-15T00:35:32;10.83;;;4.23;;
84161;SDS011;74285;52.372;12.924;2024-01-15T00:37:57;10.10;;;4.07;;
84161;SDS011;74285;52.372;12.924;2024-01-15T00:40:23;8.00;;;2.93;;
84161;SDS011;74285;52.372;12.924;2024-01-15T00:42:50;4.15;;;2.60;;
84161;SDS011;74285;52.372;12.924;2024-01-15T00:45:15;6.10;;;3.10;;
84161;SDS011;74285;52.372;12.924;2024-01-15T00:47:40;8.50;;;4.83;;
84161;SDS011;74285;52.372;12.924;2024-01-15T00:50:06;8.07;;;3.80;;
84161;SDS011;74285;52.372;12.924;2024-01-15T00:52:31;8.03;;;3.87;;
84161;SDS011;74285;52.372;12.924;2024-01-15T00:54:57;9.35;;;3.80;;
84161;SDS011;74285;52.372;12.924;2024-01-15T00:57:22;13.47;;;6.30;;
84161;SDS011;74285;52.372;12.924;2024-01-15T00:59:47;7.60;;;3.37;;
84161;SDS011;74285;52.372;12.924;2024-01-15T01:02:13;7.82;;;4.07;;
84161;SDS011;74285;52.372;12.924;2024-01-15T01:04:38;6.97;;;3.13;;
84161;SDS011;74285;52.372;12.924;2024-01-15T01:07:03;5.20;;;2.73;;
84161;SDS011;74285;52.372;12.924;2024-01-15T01:09:29;5.93;;;2.63;;
84161;SDS011;74285;52.372;12.924;2024-01-15T01:11:55;10.80;;;4.50;;
84161;SDS011;74285;52.372;12.924;2024-01-15T01:14:20;7.50;;;3.33;;
84161;SDS011;74285;52.372;12.924;2024-01-15T01:16:46;12.03;;;4.93;;
84161;SDS011;74285;52.372;12.924;2024-01-15T01:19:11;6.40;;;2.57;;
84161;SDS011;74285;52.372;12.924;2024-01-15T01:21:36;12.67;;;4.40;;
84161;SDS011;74285;52.372;12.924;2024-01-15T01:24:02;6.47;;;2.93;;
84161;SDS011;74285;52.372;12.924;2024-01-15T01:26:27;8.80;;;3.67;;
84161;SDS011;74285;52.372;12.924;2024-01-15T01:28:52;8.87;;;4.27;;
84161;SDS011;74285;52.372;12.924;2024-01-15T01:31:17;9.23;;;4.23;;
84161;SDS011;74285;52.372;12.924;2024-01-15T01:33:43;8.20;;;3.97;;
84161;SDS011;74285;52.372;12.924;2024-01-15T01:36:09;7.53;;;3.13;;
84161;SDS011;74285;52.372;12.924;2024-01-15T01:38:34;7.28;;;2.95;;
84161;SDS011;74285;52.372;12.924;2024-01-15T01:41:00;7.82;;;4.32;;
84161;SDS011;74285;52.372;12.924;2024-01-15T01:43:25;5.93;;;3.30;;
84161;SDS011;74285;52.372;12.924;2024-01-15T01:45:50;7.83;;;3.60;;
84161;SDS011;74285;52.372;12.924;2024-01-15T01:48:16;10.90;;;3.43;;
84161;SDS011;74285;52.372;12.924;2024-01-15T01:50:41;9.57;;;4.53;;
84161;SDS011;74285;52.372;12.924;2024-01-15T01:53:06;10.63;;;4.47;;
84161;SDS011;74285;52.372;12.924;2024-01-15T01:55:32;8.53;;;3.93;;
84161;SDS011;74285;52.372;12.924;2024-01-15T01:57:58;6.68;;;3.50;;
84161;SDS011;74285;52.372;12.924;2024-01-15T02:00:24;5.90;;;3.33;;
84161;SDS011;74285;52.372;12.924;2024-01-15T02:02:49;7.90;;;3.83;;
84161;SDS011;74285;52.372;12.924;2024-01-15T02:05:14;8.15;;;3.80;;
84161;SDS011;74285;52.372;12.924;2024-01-15T02:07:43;7.85;;;3.55;;
84161;SDS011;74285;52.372;12.924;2024-01-15T02:10:09;11.32;;;5.47;;
84161;SDS011;74285;52.372;12.924;2024-01-15T02:12:34;7.38;;;3.10;;
84161;SDS011;74285;52.372;12.924;2024-01-15T02:15:00;6.00;;;3.70;;
84161;SDS011;74285;52.372;12.924;2024-01-15T02:17:25;6.17;;;2.43;;
84161;SDS011;74285;52.372;12.924;2024-01-15T02:19:50;9.60;;;3.70;;
84161;SDS011;74285;52.372;12.924;2024-01-15T02:22:15;7.80;;;3.30;;
84161;SDS011;74285;52.372;12.924;2024-01-15T02:24:41;12.60;;;4.60;;
84161;SDS011;74285;52.372;12.924;2024-01-15T02:27:06;9.20;;;4.28;;
84161;SDS011;74285;52.372;12.924;2024-01-15T02:29:32;9.25;;;4.13;;
84161;SDS011;74285;52.372;12.924;2024-01-15T02:31:58;4.45;;;2.35;;
84161;SDS011;74285;52.372;12.924;2024-01-15T02:34:23;7.00;;;3.27;;
84161;SDS011;74285;52.372;12.924;2024-01-15T02:36:48;6.90;;;2.47;;
84161;SDS011;74285;52.372;12.924;2024-01-15T02:39:13;8.60;;;3.93;;
84161;SDS011;74285;52.372;12.924;2024-01-15T02:41:39;8.75;;;3.50;;
84161;SDS011;74285;52.372;12.924;2024-01-15T02:44:04;6.43;;;2.83;;
84161;SDS011;74285;52.372;12.924;2024-01-15T02:46:29;7.40;;;3.03;;
84161;SDS011;74285;52.372;12.924;2024-01-15T02:48:55;4.70;;;2.97;;
84161;SDS011;74285;52.372;12.924;2024-01-15T02:51:20;5.97;;;2.97;;
84161;SDS011;74285;52.372;12.924;2024-01-15T02:53:45;5.40;;;2.87;;
84161;SDS011;74285;52.372;12.924;2024-01-15T02:56:11;8.73;;;3.72;;
84161;SDS011;74285;52.372;12.924;2024-01-15T02:58:36;6.33;;;3.10;;
84161;SDS011;74285;52.372;12.924;2024-01-15T03:01:01;9.60;;;2.70;;
84161;SDS011;74285;52.372;12.924;2024-01-15T03:03:26;5.40;;;2.97;;
84161;SDS011;74285;52.372;12.924;2024-01-15T03:05:52;4.30;;;2.57;;
84161;SDS011;74285;52.372;12.924;2024-01-15T03:08:17;6.47;;;2.33;;
84161;SDS011;74285;52.372;12.924;2024-01-15T03:10:42;5.83;;;2.73;;
84161;SDS011;74285;52.372;12.924;2024-01-15T03:13:08;5.80;;;2.17;;
84161;SDS011;74285;52.372;12.924;2024-01-15T03:15:33;2.73;;;1.20;;
84161;SDS011;74285;52.372;12.924;2024-01-15T03:17:58;4.50;;;2.30;;
84161;SDS011;74285;52.372;12.924;2024-01-15T03:20:24;7.03;;;3.07;;
84161;SDS011;74285;52.372;12.924;2024-01-15T03:22:49;6.03;;;2.80;;
84161;SDS011;74285;52.372;12.924;2024-01-15T03:25:15;3.67;;;1.67;;
84161;SDS011;74285;52.372;12.924;2024-01-15T03:27:40;4.77;;;1.90;;
84161;SDS011;74285;52.372;12.924;2024-01-15T03:30:05;6.53;;;2.67;;
84161;SDS011;74285;52.372;12.924;2024-01-15T03:32:33;5.43;;;3.22;;
84161;SDS011;74285;52.372;12.924;2024-01-15T03:34:58;5.30;;;3.20;;
84161;SDS011;74285;52.372;12.924;2024-01-15T03:37:23;6.00;;;2.43;;
84161;SDS011;74285;52.372;12.924;2024-01-15T03:39:48;8.00;;;2.33;;
84161;SDS011;74285;52.372;12.924;2024-01-15T03:42:14;4.57;;;1.93;;
84161;SDS011;74285;52.372;12.924;2024-01-15T03:44:39;9.70;;;2.77;;
84161;SDS011;74285;52.372;12.924;2024-01-15T03:47:04;7.07;;;2.65;;
84161;SDS011;74285;52.372;12.924;2024-01-15T03:49:30;6.10;;;2.13;;
84161;SDS011;74285;52.372;12.924;2024-01-15T03:51:55;5.17;;;1.43;;
84161;SDS011;74285;52.372;12.924;2024-01-15T03:54:20;4.77;;;1.73;;
84161;SDS011;74285;52.372;12.924;2024-01-15T03:56:46;3.67;;;2.00;;
84161;SDS011;74285;52.372;12.924;2024-01-15T03:59:11;3.43;;;1.90;;
84161;SDS011;74285;52.372;12.924;2024-01-15T04:01:36;5.13;;;2.57;;
84161;SDS011;74285;52.372;12.924;2024-01-15T04:04:01;8.50;;;2.57;;
84161;SDS011;74285;52.372;12.924;2024-01-15T04:06:27;4.97;;;1.57;;
84161;SDS011;74285;52.372;12.924;2024-01-15T04:08:52;4.87;;;1.63;;
84161;SDS011;74285;52.372;12.924;2024-01-15T04:11:17;4.77;;;1.30;;
84161;SDS011;74285;52.372;12.924;2024-01-15T04:13:43;5.33;;;0.87;;
84161;SDS011;74285;52.372;12.924;2024-01-15T04:16:08;3.13;;;1.63;;
84161;SDS011;74285;52.372;12.924;2024-01-15T04:18:33;5.30;;;1.53;;
84161;SDS011;74285;52.372;12.924;2024-01-15T04:20:58;4.77;;;1.20;;
84161;SDS011;74285;52.372;12.924;2024-01-15T04:23:24;4.00;;;1.90;;
84161;SDS011;74285;52.372;12.924;2024-01-15T04:25:49;2.03;;;1.07;;
84161;SDS011;74285;52.372;12.924;2024-01-15T04:28:14;4.10;;;2.20;;
84161;SDS011;74285;52.372;12.924;2024-01-15T04:30:40;2.50;;;1.03;;
84161;SDS011;74285;52.372;12.924;2024-01-15T04:33:05;4.43;;;1.33;;
84161;SDS011;74285;52.372;12.924;2024-01-15T04:35:30;2.80;;;1.30;;
84161;SDS011;74285;52.372;12.924;2024-01-15T04:37:56;2.92;;;1.33;;
84161;SDS011;74285;52.372;12.924;2024-01-15T04:40:21;2.10;;;1.27;;
84161;SDS011;74285;52.372;12.924;2024-01-15T04:42:46;1.97;;;1.33;;
84161;SDS011;74285;52.372;12.924;2024-01-15T04:45:12;4.17;;;1.30;;
84161;SDS011;74285;52.372;12.924;2024-01-15T04:47:37;3.40;;;1.13;;
84161;SDS011;74285;52.372;12.924;2024-01-15T04:50:03;5.67;;;1.27;;
84161;SDS011;74285;52.372;12.924;2024-01-15T04:54:54;4.43;;;1.00;;
84161;SDS011;74285;52.372;12.924;2024-01-15T04:57:19;3.03;;;1.07;;
84161;SDS011;74285;52.372;12.924;2024-01-15T04:59:45;2.77;;;1.13;;
84161;SDS011;74285;52.372;12.924;2024-01-15T05:02:10;10.43;;;2.20;;
84161;SDS011;74285;52.372;12.924;2024-01-15T05:04:35;2.47;;;0.70;;
84161;SDS011;74285;52.372;12.924;2024-01-15T05:07:00;3.43;;;1.53;;
84161;SDS011;74285;52.372;12.924;2024-01-15T05:09:26;2.87;;;1.17;;
84161;SDS011;74285;52.372;12.924;2024-01-15T05:11:51;3.63;;;1.13;;
84161;SDS011;74285;52.372;12.924;2024-01-15T05:14:16;1.73;;;1.00;;
84161;SDS011;74285;52.372;12.924;2024-01-15T05:16:48;4.45;;;1.70;;
84161;SDS011;74285;52.372;12.924;2024-01-15T05:19:14;7.35;;;1.70;;
84161;SDS011;74285;52.372;12.924;2024-01-15T05:21:39;3.37;;;1.73;;
84161;SDS011;74285;52.372;12.924;2024-01-15T05:24:04;2.87;;;2.23;;
84161;SDS011;74285;52.372;12.924;2024-01-15T05:26:30;4.23;;;1.40;;
84161;SDS011;74285;52.372;12.924;2024-01-15T05:28:55;3.47;;;1.43;;
84161;SDS011;74285;52.372;12.924;2024-01-15T05:31:20;5.90;;;1.20;;
84161;SDS011;74285;52.372;12.924;2024-01-15T05:33:46;3.20;;;0.83;;
84161;SDS011;74285;52.372;12.924;2024-01-15T05:36:11;6.00;;;1.60;;
84161;SDS011;74285;52.372;12.924;2024-01-15T05:38:36;3.80;;;1.10;;
84161;SDS011;74285;52.372;12.924;2024-01-15T05:41:02;3.70;;;1.20;;
84161;SDS011;74285;52.372;12.924;2024-01-15T05:43:27;5.80;;;1.20;;
84161;SDS011;74285;52.372;12.924;2024-01-15T05:45:52;3.53;;;1.00;;
84161;SDS011;74285;52.372;12.924;2024-01-15T05:48:17;4.03;;;1.40;;
84161;SDS011;74285;52.372;12.924;2024-01-15T05:50:43;4.88;;;1.65;;
84161;SDS011;74285;52.372;12.924;2024-01-15T05:53:08;1.37;;;1.27;;
84161;SDS011;74285;52.372;12.924;2024-01-15T05:55:35;1.67;;;0.77;;
84161;SDS011;74285;52.372;12.924;2024-01-15T05:58:01;2.95;;;0.65;;
84161;SDS011;74285;52.372;12.924;2024-01-15T06:00:26;3.57;;;1.03;;
84161;SDS011;74285;52.372;12.924;2024-01-15T06:02:51;2.20;;;0.97;;
84161;SDS011;74285;52.372;12.924;2024-01-15T06:05:16;1.50;;;0.47;;
84161;SDS011;74285;52.372;12.924;2024-01-15T06:07:42;2.13;;;0.40;;
84161;SDS011;74285;52.372;12.924;2024-01-15T06:10:07;2.53;;;0.67;;
84161;SDS011;74285;52.372;12.924;2024-01-15T06:12:32;4.68;;;0.73;;
84161;SDS011;74285;52.372;12.924;2024-01-15T06:14:58;3.08;;;0.70;;
84161;SDS011;74285;52.372;12.924;2024-01-15T06:17:24;0.88;;;0.40;;
84161;SDS011;74285;52.372;12.924;2024-01-15T06:19:49;2.53;;;0.77;;
84161;SDS011;74285;52.372;12.924;2024-01-15T06:22:14;1.10;;;0.43;;
84161;SDS011;74285;52.372;12.924;2024-01-15T06:24:39;1.80;;;0.77;;
84161;SDS011;74285;52.372;12.924;2024-01-15T06:27:05;10.23;;;1.47;;
84161;SDS011;74285;52.372;12.924;2024-01-15T06:29:30;2.77;;;0.33;;
84161;SDS011;74285;52.372;12.924;2024-01-15T06:31:57;5.07;;;0.75;;
84161;SDS011;74285;52.372;12.924;2024-01-15T06:34:22;2.30;;;0.77;;
84161;SDS011;74285;52.372;12.924;2024-01-15T06:36:47;3.03;;;0.50;;
84161;SDS011;74285;52.372;12.924;2024-01-15T06:39:12;2.43;;;0.43;;
84161;SDS011;74285;52.372;12.924;2024-01-15T06:41:38;4.37;;;0.77;;
84161;SDS011;74285;52.372;12.924;2024-01-15T06:44:09;2.28;;;0.65;;
84161;SDS011;74285;52.372;12.924;2024-01-15T06:46:35;4.88;;;0.63;;
84161;SDS011;74285;52.372;12.924;2024-01-15T06:49:06;6.28;;;1.27;;
84161;SDS011;74285;52.372;12.924;2024-01-15T06:51:31;1.57;;;0.70;;
84161;SDS011;74285;52.372;12.924;2024-01-15T06:53:57;2.03;;;0.67;;
84161;SDS011;74285;52.372;12.924;2024-01-15T06:56:22;5.47;;;0.83;;
84161;SDS011;74285;52.372;12.924;2024-01-15T06:58:47;5.23;;;1.07;;
84161;SDS011;74285;52.372;12.924;2024-01-15T07:01:12;1.93;;;0.90;;
84161;SDS011;74285;52.372;12.924;2024-01-15T07:03:38;1.60;;;0.40;;
84161;SDS011;74285;52.372;12.924;2024-01-15T07:06:03;2.30;;;0.47;;
84161;SDS011;74285;52.372;12.924;2024-01-15T07:08:29;0.50;;;0.30;;
84161;SDS011;74285;52.372;12.924;2024-01-15T07:10:54;1.52;;;0.55;;
84161;SDS011;74285;52.372;12.924;2024-01-15T07:13:19;1.70;;;0.83;;
84161;SDS011;74285;52.372;12.924;2024-01-15T07:15:45;3.30;;;0.67;;
84161;SDS011;74285;52.372;12.924;2024-01-15T07:18:10;0.90;;;0.60;;
84161;SDS011;74285;52.372;12.924;2024-01-15T07:20:35;4.47;;;0.70;;
84161;SDS011;74285;52.372;12.924;2024-01-15T07:23:01;7.17;;;1.00;;
84161;SDS011;74285;52.372;12.924;2024-01-15T07:25:26;1.70;;;0.83;;
84161;SDS011;74285;52.372;12.924;2024-01-15T07:27:53;6.95;;;1.17;;
84161;SDS011;74285;52.372;12.924;2024-01-15T07:30:19;1.13;;;0.45;;
84161;SDS011;74285;52.372;12.924;2024-01-15T07:32:46;2.30;;;0.45;;
84161;SDS011;74285;52.372;12.924;2024-01-15T07:35:12;1.27;;;0.30;;
84161;SDS011;74285;52.372;12.924;2024-01-15T07:37:37;2.50;;;0.43;;
84161;SDS011;74285;52.372;12.924;2024-01-15T07:40:02;6.13;;;0.70;;
84161;SDS011;74285;52.372;12.924;2024-01-15T07:42:29;7.78;;;1.13;;
84161;SDS011;74285;52.372;12.924;2024-01-15T07:44:54;2.57;;;0.70;;
84161;SDS011;74285;52.372;12.924;2024-01-15T07:47:20;5.37;;;0.33;;
84161;SDS011;74285;52.372;12.924;2024-01-15T07:49:45;3.47;;;0.57;;
84161;SDS011;74285;52.372;12.924;2024-01-15T07:52:10;5.80;;;0.97;;
84161;SDS011;74285;52.372;12.924;2024-01-15T07:54:37;8.60;;;0.80;;
84161;SDS011;74285;52.372;12.924;2024-01-15T07:57:03;7.03;;;0.90;;
84161;SDS011;74285;52.372;12.924;2024-01-15T07:59:28;2.28;;;0.57;;
84161;SDS011;74285;52.372;12.924;2024-01-15T08:01:53;4.80;;;0.57;;
84161;SDS011;74285;52.372;12.924;2024-01-15T08:04:19;2.65;;;1.17;;
84161;SDS011;74285;52.372;12.924;2024-01-15T08:06:45;5.57;;;0.80;;
84161;SDS011;74285;52.372;12.924;2024-01-15T08:09:11;5.78;;;0.77;;
84161;SDS011;74285;52.372;12.924;2024-01-15T08:11:40;3.80;;;0.93;;
84161;SDS011;74285;52.372;12.924;2024-01-15T08:14:07;5.40;;;0.80;;
84161;SDS011;74285;52.372;12.924;2024-01-15T08:16:32;0.52;;;0.40;;
84161;SDS011;74285;52.372;12.924;2024-01-15T08:18:57;4.63;;;0.73;;
84161;SDS011;74285;52.372;12.924;2024-01-15T08:21:23;3.43;;;0.50;;
84161;SDS011;74285;52.372;12.924;2024-01-15T08:23:48;8.83;;;1.67;;
84161;SDS011;74285;52.372;12.924;2024-01-15T08:26:13;2.30;;;0.60;;
84161;SDS011;74285;52.372;12.924;2024-01-15T08:28:39;3.73;;;0.83;;
84161;SDS011;74285;52.372;12.924;2024-01-15T08:31:04;4.77;;;1.10;;
84161;SDS011;74285;52.372;12.924;2024-01-15T08:33:29;0.50;;;0.40;;
84161;SDS011;74285;52.372;12.924;2024-01-15T08:35:54;0.93;;;0.63;;
84161;SDS011;74285;52.372;12.924;2024-01-15T08:38:20;4.23;;;0.83;;
84161;SDS011;74285;52.372;12.924;2024-01-15T08:40:45;7.45;;;1.27;;
84161;SDS011;74285;52.372;12.924;2024-01-15T08:43:11;0.60;;;0.43;;
84161;SDS011;74285;52.372;12.924;2024-01-15T08:45:36;4.53;;;0.70;;
84161;SDS011;74285;52.372;12.924;2024-01-15T08:48:01;4.90;;;1.23;;
84161;SDS011;74285;52.372;12.924;2024-01-15T08:50:27;7.57;;;1.53;;
84161;SDS011;74285;52.372;12.924;2024-01-15T08:52:52;2.30;;;0.37;;
84161;SDS011;74285;52.372;12.924;2024-01-15T08:55:18;6.50;;;3.05;;
84161;SDS011;74285;52.372;12.924;2024-01-15T08:57:43;6.50;;;1.30;;
84161;SDS011;74285;52.372;12.924;2024-01-15T09:00:08;4.93;;;0.90;;
84161;SDS011;74285;52.372;12.924;2024-01-15T09:02:34;1.75;;;0.45;;
84161;SDS011;74285;52.372;12.924;2024-01-15T09:05:00;3.28;;;0.55;;
84161;SDS011;74285;52.372;12.924;2024-01-15T09:07:26;3.03;;;0.70;;
84161;SDS011;74285;52.372;12.924;2024-01-15T09:09:51;5.32;;;1.70;;
84161;SDS011;74285;52.372;12.924;2024-01-15T09:12:17;3.03;;;1.25;;
84161;SDS011;74285;52.372;12.924;2024-01-15T09:14:43;4.53;;;1.27;;
84161;SDS011;74285;52.372;12.924;2024-01-15T09:17:09;3.97;;;1.40;;
84161;SDS011;74285;52.372;12.924;2024-01-15T09:19:34;2.03;;;1.30;;
84161;SDS011;74285;52.372;12.924;2024-01-15T09:21:59;2.23;;;0.67;;
84161;SDS011;74285;52.372;12.924;2024-01-15T09:24:25;3.97;;;1.00;;
84161;SDS011;74285;52.372;12.924;2024-01-15T09:26:50;4.67;;;1.20;;
84161;SDS011;74285;52.372;12.924;2024-01-15T09:29:15;2.63;;;0.40;;
84161;SDS011;74285;52.372;12.924;2024-01-15T09:31:41;3.03;;;0.80;;
84161;SDS011;74285;52.372;12.924;2024-01-15T09:34:06;3.50;;;0.82;;
84161;SDS011;74285;52.372;12.924;2024-01-15T09:36:31;3.17;;;1.37;;
84161;SDS011;74285;52.372;12.924;2024-01-15T09:38:57;1.60;;;0.63;;
84161;SDS011;74285;52.372;12.924;2024-01-15T09:41:22;2.85;;;1.40;;
84161;SDS011;74285;52.372;12.924;2024-01-15T09:43:48;2.33;;;0.55;;
84161;SDS011;74285;52.372;12.924;2024-01-15T09:46:13;2.65;;;1.00;;
84161;SDS011;74285;52.372;12.924;2024-01-15T09:48:39;4.95;;;1.52;;
84161;SDS011;74285;52.372;12.924;2024-01-15T09:51:05;1.17;;;0.80;;
84161;SDS011;74285;52.372;12.924;2024-01-15T09:53:31;3.65;;;1.00;;
84161;SDS011;74285;52.372;12.924;2024-01-15T09:55:57;2.83;;;1.20;;
84161;SDS011;74285;52.372;12.924;2024-01-15T09:58:23;11.68;;;2.10;;
84161;SDS011;74285;52.372;12.924;2024-01-15T10:00:49;5.60;;;1.27;;
84161;SDS011;74285;52.372;12.924;2024-01-15T10:03:15;1.95;;;0.40;;
84161;SDS011;74285;52.372;12.924;2024-01-15T10:05:40;10.77;;;1.10;;
84161;SDS011;74285;52.372;12.924;2024-01-15T10:08:05;3.00;;;1.10;;
84161;SDS011;74285;52.372;12.924;2024-01-15T10:10:31;2.25;;;0.60;;
84161;SDS011;74285;52.372;12.924;2024-01-15T10:12:58;4.10;;;1.10;;
84161;SDS011;74285;52.372;12.924;2024-01-15T10:15:23;2.65;;;0.50;;
84161;SDS011;74285;52.372;12.924;2024-01-15T10:17:48;4.83;;;1.80;;
84161;SDS011;74285;52.372;12.924;2024-01-15T10:20:15;3.58;;;1.08;;
84161;SDS011;74285;52.372;12.924;2024-01-15T10:22:45;5.83;;;1.10;;
84161;SDS011;74285;52.372;12.924;2024-01-15T10:25:14;3.72;;;0.90;;
84161;SDS011;74285;52.372;12.924;2024-01-15T10:27:43;1.02;;;0.47;;
84161;SDS011;74285;52.372;12.924;2024-01-15T10:30:23;0.68;;;0.57;;
84161;SDS011;74285;52.372;12.924;2024-01-15T10:32:57;3.80;;;1.30;;
84161;SDS011;74285;52.372;12.924;2024-01-15T10:35:23;3.17;;;0.88;;
84161;SDS011;74285;52.372;12.924;2024-01-15T10:37:52;2.78;;;0.85;;
84161;SDS011;74285;52.372;12.924;2024-01-15T10:40:18;1.42;;;0.70;;
84161;SDS011;74285;52.372;12.924;2024-01-15T10:42:43;1.55;;;1.27;;
84161;SDS011;74285;52.372;12.924;2024-01-15T10:45:09;3.60;;;0.53;;
84161;SDS011;74285;52.372;12.924;2024-01-15T10:47:34;0.90;;;0.70;;
84161;SDS011;74285;52.372;12.924;2024-01-15T10:50:00;1.25;;;0.80;;
84161;SDS011;74285;52.372;12.924;2024-01-15T10:52:26;1.15;;;0.85;;
84161;SDS011;74285;52.372;12.924;2024-01-15T10:54:53;1.83;;;0.95;;
84161;SDS011;74285;52.372;12.924;2024-01-15T10:57:18;3.57;;;0.70;;
84161;SDS011;74285;52.372;12.924;2024-01-15T10:59:46;1.35;;;0.73;;
84161;SDS011;74285;52.372;12.924;2024-01-15T11:02:12;4.13;;;1.00;;
84161;SDS011;74285;52.372;12.924;2024-01-15T11:04:38;2.47;;;1.08;;
84161;SDS011;74285;52.372;12.924;2024-01-15T11:07:03;4.00;;;0.93;;
84161;SDS011;74285;52.372;12.924;2024-01-15T11:09:30;1.92;;;0.90;;
84161;SDS011;74285;52.372;12.924;2024-01-15T11:12:11;4.68;;;1.83;;
84161;SDS011;74285;52.372;12.924;2024-01-15T11:17:08;5.85;;;1.90;;
84161;SDS011;74285;52.372;12.924;2024-01-15T11:19:38;3.97;;;2.03;;
84161;SDS011;74285;52.372;12.924;2024-01-15T11:22:47;4.30;;;2.35;;
84161;SDS011;74285;52.372;12.924;2024-01-15T11:25:13;2.17;;;1.23;;
84161;SDS011;74285;52.372;12.924;2024-01-15T11:27:40;3.28;;;1.60;;
84161;SDS011;74285;52.372;12.924;2024-01-15T11:30:11;4.50;;;1.40;;
84161;SDS011;74285;52.372;12.924;2024-01-15T11:32:37;5.85;;;1.25;;
84161;SDS011;74285;52.372;12.924;2024-01-15T11:35:06;2.10;;;1.52;;
84161;SDS011;74285;52.372;12.924;2024-01-15T11:40:18;2.60;;;1.40;;
84161;SDS011;74285;52.372;12.924;2024-01-15T11:42:47;6.10;;;1.42;;
84161;SDS011;74285;52.372;12.924;2024-01-15T11:45:13;6.35;;;1.92;;
84161;SDS011;74285;52.372;12.924;2024-01-15T11:48:03;4.47;;;1.20;;
84161;SDS011;74285;52.372;12.924;2024-01-15T11:50:35;4.38;;;1.83;;
84161;SDS011;74285;52.372;12.924;2024-01-15T11:53:06;2.25;;;1.77;;
84161;SDS011;74285;52.372;12.924;2024-01-15T11:55:39;4.20;;;2.47;;
84161;SDS011;74285;52.372;12.924;2024-01-15T11:58:07;3.03;;;1.52;;
84161;SDS011;74285;52.372;12.924;2024-01-15T12:00:34;3.22;;;1.42;;
84161;SDS011;74285;52.372;12.924;2024-01-15T12:03:04;2.33;;;1.52;;
84161;SDS011;74285;52.372;12.924;2024-01-15T12:05:30;3.28;;;1.90;;
84161;SDS011;74285;52.372;12.924;2024-01-15T12:07:55;1.73;;;1.15;;
84161;SDS011;74285;52.372;12.924;2024-01-15T12:10:21;2.60;;;1.10;;
84161;SDS011;74285;52.372;12.924;2024-01-15T12:12:59;1.25;;;0.57;;
84161;SDS011;74285;52.372;12.924;2024-01-15T12:15:26;1.52;;;0.75;;
84161;SDS011;74285;52.372;12.924;2024-01-15T12:17:56;2.50;;;0.90;;
84161;SDS011;74285;52.372;12.924;2024-01-15T12:20:22;3.80;;;1.15;;
84161;SDS011;74285;52.372;12.924;2024-01-15T12:22:49;3.97;;;1.08;;
84161;SDS011;74285;52.372;12.924;2024-01-15T12:25:14;2.42;;;1.50;;
84161;SDS011;74285;52.372;12.924;2024-01-15T12:27:39;4.33;;;1.33;;
84161;SDS011;74285;52.372;12.924;2024-01-15T12:30:05;4.03;;;1.50;;
84161;SDS011;74285;52.372;12.924;2024-01-15T12:32:30;1.52;;;0.75;;
84161;SDS011;74285;52.372;12.924;2024-01-15T12:34:55;2.07;;;1.10;;
84161;SDS011;74285;52.372;12.924;2024-01-15T12:37:21;0.47;;;0.30;;
84161;SDS011;74285;52.372;12.924;2024-01-15T12:39:46;3.97;;;0.93;;
84161;SDS011;74285;52.372;12.924;2024-01-15T12:42:14;3.05;;;1.75;;
84161;SDS011;74285;52.372;12.924;2024-01-15T12:44:39;4.30;;;1.70;;
84161;SDS011;74285;52.372;12.924;2024-01-15T12:47:05;3.83;;;1.70;;
84161;SDS011;74285;52.372;12.924;2024-01-15T12:49:30;2.80;;;1.38;;
84161;SDS011;74285;52.372;12.924;2024-01-15T12:51:59;2.67;;;1.20;;
84161;SDS011;74285;52.372;12.924;2024-01-15T12:54:24;3.78;;;1.65;;
84161;SDS011;74285;52.372;12.924;2024-01-15T12:56:50;6.03;;;3.00;;
84161;SDS011;74285;52.372;12.924;2024-01-15T12:59:16;3.30;;;1.85;;
84161;SDS011;74285;52.372;12.924;2024-01-15T13:01:42;6.95;;;2.88;;
84161;SDS011;74285;52.372;12.924;2024-01-15T13:04:08;6.35;;;2.35;;
84161;SDS011;74285;52.372;12.924;2024-01-15T13:06:34;5.10;;;2.78;;
84161;SDS011;74285;52.372;12.924;2024-01-15T13:08:59;7.88;;;2.17;;
84161;SDS011;74285;52.372;12.924;2024-01-15T13:11:25;5.67;;;2.67;;
84161;SDS011;74285;52.372;12.924;2024-01-15T13:13:50;3.67;;;1.17;;
84161;SDS011;74285;52.372;12.924;2024-01-15T13:16:16;7.87;;;3.03;;
84161;SDS011;74285;52.372;12.924;2024-01-15T13:18:41;1.83;;;0.90;;
84161;SDS011;74285;52.372;12.924;2024-01-15T13:21:06;5.07;;;1.73;;
84161;SDS011;74285;52.372;12.924;2024-01-15T13:23:31;2.87;;;1.43;;
84161;SDS011;74285;52.372;12.924;2024-01-15T13:25:57;5.33;;;2.00;;
84161;SDS011;74285;52.372;12.924;2024-01-15T13:28:23;6.28;;;1.80;;
84161;SDS011;74285;52.372;12.924;2024-01-15T13:30:48;3.07;;;1.20;;
84161;SDS011;74285;52.372;12.924;2024-01-15T13:33:13;5.50;;;2.67;;
84161;SDS011;74285;52.372;12.924;2024-01-15T13:35:39;6.35;;;2.10;;
84161;SDS011;74285;52.372;12.924;2024-01-15T13:38:04;3.13;;;1.87;;
84161;SDS011;74285;52.372;12.924;2024-01-15T13:40:29;4.13;;;1.57;;
84161;SDS011;74285;52.372;12.924;2024-01-15T13:42:54;3.10;;;1.13;;
84161;SDS011;74285;52.372;12.924;2024-01-15T13:45:20;4.07;;;2.00;;
84161;SDS011;74285;52.372;12.924;2024-01-15T13:47:45;4.60;;;1.70;;
84161;SDS011;74285;52.372;12.924;2024-01-15T13:50:10;5.47;;;1.33;;
84161;SDS011;74285;52.372;12.924;2024-01-15T13:52:36;4.63;;;1.40;;
84161;SDS011;74285;52.372;12.924;2024-01-15T13:55:01;6.83;;;1.87;;
84161;SDS011;74285;52.372;12.924;2024-01-15T13:57:27;4.75;;;1.52;;
84161;SDS011;74285;52.372;12.924;2024-01-15T13:59:52;4.23;;;1.67;;
84161;SDS011;74285;52.372;12.924;2024-01-15T14:02:17;2.20;;;1.37;;
84161;SDS011;74285;52.372;12.924;2024-01-15T14:04:42;3.10;;;1.13;;
84161;SDS011;74285;52.372;12.924;2024-01-15T14:07:08;4.72;;;1.10;;
84161;SDS011;74285;52.372;12.924;2024-01-15T14:09:33;3.23;;;1.27;;
84161;SDS011;74285;52.372;12.924;2024-01-15T14:11:59;11.23;;;2.27;;
84161;SDS011;74285;52.372;12.924;2024-01-15T14:14:24;5.72;;;1.65;;
84161;SDS011;74285;52.372;12.924;2024-01-15T14:16:50;7.50;;;1.88;;
84161;SDS011;74285;52.372;12.924;2024-01-15T14:19:15;6.23;;;1.83;;
84161;SDS011;74285;52.372;12.924;2024-01-15T14:21:40;5.90;;;1.57;;
84161;SDS011;74285;52.372;12.924;2024-01-15T14:24:06;6.20;;;2.57;;
84161;SDS011;74285;52.372;12.924;2024-01-15T14:26:31;4.90;;;2.67;;
84161;SDS011;74285;52.372;12.924;2024-01-15T14:28:56;1.83;;;1.15;;
84161;SDS011;74285;52.372;12.924;2024-01-15T14:31:23;2.40;;;1.02;;
84161;SDS011;74285;52.372;12.924;2024-01-15T14:33:51;2.05;;;1.23;;